Last 24 Hours

Squaw-Red Dog 6200'

Hourly Data | America/Los_Angeles
as of 1/15/21 1:30 PM PST
Date & Time Temp (°F) RH (%) Dew Pt (°F) Wet Bulb (°F) Wind Dir (°) Wind Spd (mph) Wind Gust (mph) Latest Rain (In) New Snow (in) SnowDepth (in) Daily Min Temp (°F) Daily Max Temp (°F) Daily Rain (In)
1/15/21 - 1300 58.1 20 17.8 41.9 NW | 324 4.2 9.9 0.00 - 13.2 26.6 60.0 0.00
1/15/21 - 1200 56.5 22 18.5 41.3 W | 271 1.6 5.2 0.00 - 13.2 26.6 56.9 0.00
1/15/21 - 1100 44.4 51 27.5 37.6 W | 260 1.5 2.7 0.00 0.1 13.6 26.6 44.4 0.00
1/15/21 - 1000 38.5 62 26.6 34.0 WSW | 249 0.6 2.5 0.00 0.1 13.5 26.6 38.5 0.00
1/15/21 - 0900 31.9 76 25.3 29.5 N | 11 0.7 3.4 0.00 - 13.2 26.6 31.9 0.00
1/15/21 - 0800 28.7 92 26.8 27.9 SSW | 212 1.2 4.4 0.00 - 12.2 26.6 31.2 0.00
1/15/21 - 0700 28.2 93 26.4 27.4 NNE | 32 0.2 1.9 0.00 - 12.7 26.6 28.9 0.00
1/15/21 - 0600 26.8 95 25.5 26.2 NW | 315 0.1 1.3 0.00 - 12.7 26.6 28.9 0.00
1/15/21 - 0500 27.1 94 25.6 26.4 NNE | 14 0.3 1.4 0.00 - 13.0 26.6 28.9 0.00
1/15/21 - 0400 27.0 92 25.0 26.2 NW | 318 0.2 1.2 0.00 - 12.4 26.8 28.9 0.00
1/15/21 - 0300 27.7 90 25.2 26.7 N | 7 0.3 2.1 0.00 - 12.8 26.8 28.9 0.00
1/15/21 - 0200 27.7 94 26.3 27.1 SSE | 159 0.3 1.9 0.00 - 12.8 27.6 28.9 0.00
1/15/21 - 0100 28.8 91 26.6 27.9 NNW | 348 0.4 2.7 0.00 0.1 12.7 27.6 28.8 0.00
1/15/21 - 0000 28.1 83 23.5 26.5 N | 7 0.4 1.7 0.00 - 13.1 24.4 53.6 0.00
1/14/21 - 2300 27.9 84 23.8 26.4 S | 187 0.5 2.0 0.00 - 12.9 24.4 53.6 0.00
1/14/21 - 2200 29.6 79 23.8 27.5 S | 183 0.2 1.7 0.00 - 13.4 24.4 53.6 0.00
1/14/21 - 2100 31.0 74 23.8 28.5 NNE | 16 0.1 1.4 0.00 0.0 13.6 24.4 53.6 0.00
1/14/21 - 2000 32.4 72 24.3 29.4 S | 184 0.2 1.6 0.00 0.1 12.8 24.4 53.6 0.00
1/14/21 - 1900 34.7 68 25.1 31.2 SSW | 206 0.3 1.7 0.00 0.1 13.6 24.4 53.6 0.00
1/14/21 - 1800 37.7 61 25.4 33.1 WSW | 237 0.8 2.7 0.00 - 13.5 24.4 53.6 0.00
1/14/21 - 1700 41.8 53 26.0 35.7 SW | 227 0.9 2.7 0.00 - 13.2 24.4 53.6 0.00
1/14/21 - 1600 45.1 44 24.6 37.1 WSW | 256 1.4 3.0 0.00 0.0 13.1 24.4 53.6 0.00
1/14/21 - 1500 48.6 39 25.0 39.1 WSW | 258 1.8 5.6 0.00 - 12.4 24.4 53.6 0.00
1/14/21 - 1400 52.1 32 23.1 40.3 WSW | 258 1.9 3.0 0.00 0.0 13.4 24.4 52.1 0.00
1/14/21 - 1300 46.8 54 30.9 40.1 WSW | 257 1.8 3.1 0.00 0.0 12.6 24.4 47.3 0.00
Max 58.1 95 30.9 41.9 - 4.2 9.9 0.00 0.1 13.6 27.6 60.0 0.00
Avg 36.3 69 24.9 31.8 - 0.9 2.8 0.00 0.1 13.0 - - -
Min 26.8 20 17.8 26.2 - 0.1 1.2 0.00 0.0 12.2 24.4 28.8 0.00
Total - - - - - - - 0.00 - - - - -